Time;durP1;ratioP1;P1;durP2;ratioP2;P2;SDS_P1;SDS_P2;PMS_P1;PMS_P2;Temp;Humidity;BMP_temperature;BMP_pressure;BME280_temperature;BME280_humidity;BME280_pressure;Samples;Min_cycle;Max_cycle;Signal;HPM_P1;HPM_P2
2022/06/16 00:00:16;;;;;;;3.73;3.27;;;;;;;;;;5137731;27;20434;-68
2022/06/16 00:02:44;;;;;;;5.67;3.80;;;;;;;;;;5137613;27;20478;-70
2022/06/16 00:05:12;;;;;;;3.77;3.40;;;;;;;;;;5137256;27;20996;-68
2022/06/16 00:07:42;;;;;;;4.10;3.70;;;;;;;;;;5137454;27;20973;-69
2022/06/16 00:10:10;;;;;;;3.73;3.10;;;;;;;;;;5137627;27;20487;-69
2022/06/16 00:12:38;;;;;;;4.43;3.10;;;;;;;;;;5137515;27;20545;-69
2022/06/16 00:15:06;;;;;;;3.50;2.30;;;;;;;;;;5137465;27;20503;-69
2022/06/16 00:17:33;;;;;;;4.20;2.80;;;;;;;;;;5137382;27;20544;-69
2022/06/16 00:20:00;;;;;;;3.60;3.20;;;;;;;;;;5137464;27;20473;-70
2022/06/16 00:22:28;;;;;;;5.70;3.70;;;;;;;;;;5137227;27;20445;-69
2022/06/16 00:24:56;;;;;;;4.87;3.07;;;;;;;;;;5138052;27;20898;-69
2022/06/16 00:27:24;;;;;;;3.20;3.00;;;;;;;;;;5136901;27;20947;-69
2022/06/16 00:29:51;;;;;;;4.20;3.30;;;;;;;;;;5136927;27;20522;-69
2022/06/16 00:32:18;;;;;;;9.97;2.90;;;;;;;;;;5136754;27;20450;-69
2022/06/16 00:34:45;;;;;;;3.20;2.90;;;;;;;;;;5137159;27;20970;-69
2022/06/16 00:37:13;;;;;;;6.77;2.60;;;;;;;;;;5136074;27;20438;-70
2022/06/16 00:39:40;;;;;;;3.13;2.93;;;;;;;;;;5137103;27;20431;-69
2022/06/16 00:42:10;;;;;;;4.33;3.03;;;;;;;;;;5136762;27;20527;-69
2022/06/16 00:44:41;;;;;;;4.00;2.87;;;;;;;;;;5137336;27;20472;-69
2022/06/16 00:47:09;;;;;;;8.63;3.07;;;;;;;;;;5136804;27;20478;-69
2022/06/16 00:49:37;;;;;;;4.13;2.60;;;;;;;;;;5136816;27;20477;-69
2022/06/16 00:52:08;;;;;;;4.00;2.93;;;;;;;;;;5137020;27;20431;-69
2022/06/16 00:54:38;;;;;;;3.77;2.80;;;;;;;;;;5136483;27;20435;-70
2022/06/16 00:57:09;;;;;;;3.53;2.80;;;;;;;;;;5136726;27;20494;-69
2022/06/16 00:59:38;;;;;;;3.97;2.50;;;;;;;;;;5136956;27;20452;-70
2022/06/16 01:02:06;;;;;;;3.53;2.73;;;;;;;;;;5136908;27;20439;-70
2022/06/16 01:04:52;;;;;;;3.30;2.37;;;;;;;;;;5136189;27;20995;-71
2022/06/16 01:07:21;;;;;;;4.07;3.17;;;;;;;;;;5136173;27;20427;-74
2022/06/16 01:09:49;;;;;;;4.37;2.60;;;;;;;;;;5136483;27;20857;-70
2022/06/16 01:15:16;;;;;;;7.33;2.90;;;;;;;;;;5136474;27;20406;-69
2022/06/16 01:17:50;;;;;;;6.80;2.77;;;;;;;;;;5136306;27;20441;-70
2022/06/16 01:20:22;;;;;;;4.10;2.57;;;;;;;;;;5136510;27;20478;-69
2022/06/16 01:22:59;;;;;;;4.47;2.50;;;;;;;;;;5135862;27;20428;-69
2022/06/16 01:25:33;;;;;;;3.13;2.53;;;;;;;;;;5135880;27;20524;-69
2022/06/16 01:28:08;;;;;;;6.03;2.83;;;;;;;;;;5135936;27;20834;-69
2022/06/16 01:30:39;;;;;;;3.30;3.00;;;;;;;;;;5135820;27;20423;-70
2022/06/16 01:33:10;;;;;;;2.30;2.10;;;;;;;;;;5136190;27;20426;-69
2022/06/16 01:35:39;;;;;;;3.80;2.40;;;;;;;;;;5136001;27;20462;-71
2022/06/16 01:38:09;;;;;;;2.60;2.40;;;;;;;;;;5135546;27;20976;-70
2022/06/16 01:40:39;;;;;;;5.30;2.73;;;;;;;;;;5136027;27;20422;-71
2022/06/16 01:43:10;;;;;;;3.40;2.87;;;;;;;;;;5135962;27;20434;-71
2022/06/16 01:45:41;;;;;;;2.60;2.10;;;;;;;;;;5135412;27;20522;-71
2022/06/16 01:48:10;;;;;;;2.60;2.33;;;;;;;;;;5136048;27;20439;-70
2022/06/16 01:50:41;;;;;;;5.10;2.60;;;;;;;;;;5135817;27;21031;-69
2022/06/16 01:53:10;;;;;;;7.03;2.93;;;;;;;;;;5135277;27;20423;-69
2022/06/16 01:55:38;;;;;;;3.33;2.40;;;;;;;;;;5135305;27;20448;-70
2022/06/16 01:58:08;;;;;;;3.47;2.50;;;;;;;;;;5135476;27;20439;-69
2022/06/16 02:00:35;;;;;;;4.00;2.40;;;;;;;;;;5135094;27;20438;-69
2022/06/16 02:03:07;;;;;;;3.10;2.50;;;;;;;;;;5135364;27;20434;-69
2022/06/16 02:05:38;;;;;;;6.47;3.10;;;;;;;;;;5135977;27;20495;-69
2022/06/16 02:08:07;;;;;;;4.50;2.60;;;;;;;;;;5135100;27;20454;-69
2022/06/16 02:10:37;;;;;;;9.37;3.07;;;;;;;;;;5135403;27;20559;-69
2022/06/16 02:13:05;;;;;;;3.17;2.80;;;;;;;;;;5135006;27;20471;-69
2022/06/16 02:15:40;;;;;;;3.60;2.80;;;;;;;;;;5135262;27;20532;-70
2022/06/16 02:18:10;;;;;;;3.47;2.67;;;;;;;;;;5135443;27;21008;-69
2022/06/16 02:20:44;;;;;;;9.17;3.17;;;;;;;;;;5135143;27;20444;-70
2022/06/16 02:23:12;;;;;;;3.90;2.53;;;;;;;;;;5135123;27;20482;-70
2022/06/16 02:25:39;;;;;;;3.60;3.30;;;;;;;;;;5135041;27;20478;-70
2022/06/16 02:28:06;;;;;;;5.93;3.10;;;;;;;;;;5134697;27;20449;-69
2022/06/16 02:30:36;;;;;;;5.53;3.13;;;;;;;;;;5134729;27;20473;-70
2022/06/16 02:33:13;;;;;;;6.53;3.00;;;;;;;;;;5135433;27;20454;-69
2022/06/16 02:35:45;;;;;;;7.00;3.40;;;;;;;;;;5135003;27;20434;-70
2022/06/16 02:38:19;;;;;;;4.20;2.80;;;;;;;;;;5135162;27;20434;-69
2022/06/16 02:41:01;;;;;;;4.40;3.13;;;;;;;;;;5134935;27;20419;-70
2022/06/16 02:43:42;;;;;;;5.20;3.97;;;;;;;;;;5131264;27;20488;-69
2022/06/16 02:46:14;;;;;;;10.53;3.40;;;;;;;;;;5134564;27;20491;-69
2022/06/16 02:48:45;;;;;;;5.07;3.10;;;;;;;;;;5134472;27;20850;-69
2022/06/16 02:51:16;;;;;;;4.27;2.97;;;;;;;;;;5134484;27;20466;-69
2022/06/16 02:53:49;;;;;;;4.20;2.93;;;;;;;;;;5135286;27;20430;-70
2022/06/16 02:56:22;;;;;;;3.60;2.77;;;;;;;;;;5134951;27;20438;-69
2022/06/16 02:58:50;;;;;;;5.70;2.97;;;;;;;;;;5133843;27;20423;-69
2022/06/16 03:01:19;;;;;;;4.87;3.30;;;;;;;;;;5134593;27;20470;-69
2022/06/16 03:04:01;;;;;;;6.50;3.90;;;;;;;;;;5134464;27;20437;-69
2022/06/16 03:06:30;;;;;;;6.80;3.37;;;;;;;;;;5134628;28;20426;-69
2022/06/16 03:08:58;;;;;;;3.80;3.40;;;;;;;;;;5134168;28;20991;-69
2022/06/16 03:11:26;;;;;;;6.80;4.63;;;;;;;;;;5135004;28;20533;-70
2022/06/16 03:13:53;;;;;;;5.83;3.43;;;;;;;;;;5134385;28;20525;-69
2022/06/16 03:16:21;;;;;;;3.33;3.00;;;;;;;;;;5133967;28;20444;-69
2022/06/16 03:18:48;;;;;;;4.07;3.67;;;;;;;;;;5133874;28;20492;-70
2022/06/16 03:21:15;;;;;;;3.50;3.10;;;;;;;;;;5134268;28;20478;-70
2022/06/16 03:23:44;;;;;;;4.13;3.30;;;;;;;;;;5133776;28;20532;-69
2022/06/16 03:26:11;;;;;;;4.80;3.17;;;;;;;;;;5134307;28;20557;-69
2022/06/16 03:28:38;;;;;;;6.60;3.80;;;;;;;;;;5133909;28;20508;-69
2022/06/16 03:31:06;;;;;;;4.13;3.43;;;;;;;;;;5133944;28;20477;-70
2022/06/16 03:33:33;;;;;;;4.57;3.67;;;;;;;;;;5134591;28;20439;-69
2022/06/16 03:36:00;;;;;;;7.70;3.57;;;;;;;;;;5134373;28;20521;-72
2022/06/16 03:38:31;;;;;;;7.43;3.93;;;;;;;;;;5134142;28;20438;-69
2022/06/16 03:40:59;;;;;;;4.40;3.90;;;;;;;;;;5134541;28;20453;-69
2022/06/16 03:43:27;;;;;;;7.33;3.33;;;;;;;;;;5133869;28;20478;-69
2022/06/16 03:45:54;;;;;;;6.20;3.50;;;;;;;;;;5134143;28;20562;-70
2022/06/16 03:48:21;;;;;;;6.87;3.87;;;;;;;;;;5132457;28;20460;-68
2022/06/16 03:50:49;;;;;;;8.20;3.57;;;;;;;;;;5131100;27;20558;-69
2022/06/16 03:53:16;;;;;;;6.50;3.93;;;;;;;;;;5133843;28;20434;-68
2022/06/16 03:55:44;;;;;;;4.17;3.27;;;;;;;;;;5133476;28;20545;-69
2022/06/16 03:58:13;;;;;;;3.87;3.47;;;;;;;;;;5133731;28;20521;-69
2022/06/16 04:00:41;;;;;;;5.53;3.67;;;;;;;;;;5133783;28;20476;-69
2022/06/16 04:05:53;;;;;;;7.30;4.73;;;;;;;;;;5133715;28;20452;-69
2022/06/16 04:08:21;;;;;;;5.53;3.33;;;;;;;;;;5133568;28;20526;-69
2022/06/16 04:10:48;;;;;;;7.70;4.00;;;;;;;;;;5133964;27;20889;-69
2022/06/16 04:13:17;;;;;;;7.27;3.73;;;;;;;;;;5137598;27;20533;-69
2022/06/16 04:15:44;;;;;;;6.20;3.70;;;;;;;;;;5137151;27;20980;-69
2022/06/16 04:18:12;;;;;;;7.97;3.73;;;;;;;;;;5137109;27;20457;-69
2022/06/16 04:20:39;;;;;;;6.50;3.80;;;;;;;;;;5137207;27;20526;-69
2022/06/16 04:23:11;;;;;;;7.10;3.90;;;;;;;;;;5138029;27;20495;-69
2022/06/16 04:25:38;;;;;;;4.90;3.87;;;;;;;;;;5136993;27;20505;-69
2022/06/16 04:28:06;;;;;;;7.27;4.50;;;;;;;;;;5137094;27;20521;-69
2022/06/16 04:30:35;;;;;;;4.63;3.70;;;;;;;;;;5137105;27;20474;-69
2022/06/16 04:33:02;;;;;;;7.57;4.07;;;;;;;;;;5137415;27;20446;-69
2022/06/16 04:35:30;;;;;;;6.07;3.80;;;;;;;;;;5137092;27;20446;-69
2022/06/16 04:37:57;;;;;;;13.17;6.33;;;;;;;;;;5136740;27;20478;-68
2022/06/16 04:40:25;;;;;;;6.20;4.00;;;;;;;;;;5136633;27;20481;-69
2022/06/16 04:42:52;;;;;;;5.63;4.23;;;;;;;;;;5137013;27;20458;-69
2022/06/16 04:45:19;;;;;;;4.80;4.10;;;;;;;;;;5136496;27;20489;-69
2022/06/16 04:47:48;;;;;;;4.87;4.30;;;;;;;;;;5136860;27;20451;-69
2022/06/16 04:50:18;;;;;;;4.77;3.87;;;;;;;;;;5136517;27;20470;-69
2022/06/16 04:52:46;;;;;;;6.13;3.90;;;;;;;;;;5136438;27;20438;-69
2022/06/16 04:55:13;;;;;;;7.43;4.73;;;;;;;;;;5137202;27;20852;-69
2022/06/16 04:57:41;;;;;;;6.60;3.37;;;;;;;;;;5136757;27;20526;-68
2022/06/16 05:00:10;;;;;;;8.67;4.10;;;;;;;;;;5136668;27;20442;-69
2022/06/16 05:02:38;;;;;;;4.70;4.07;;;;;;;;;;5136600;27;20494;-69
2022/06/16 05:05:07;;;;;;;6.03;3.13;;;;;;;;;;5136814;27;20513;-69
2022/06/16 05:07:34;;;;;;;4.67;3.50;;;;;;;;;;5136226;27;20482;-69
2022/06/16 05:10:02;;;;;;;5.60;3.70;;;;;;;;;;5136107;27;20486;-69
2022/06/16 05:12:29;;;;;;;5.57;3.73;;;;;;;;;;5136414;27;20790;-69
2022/06/16 05:14:56;;;;;;;8.73;5.40;;;;;;;;;;5136315;27;21018;-69
2022/06/16 05:17:23;;;;;;;4.33;3.97;;;;;;;;;;5136756;27;20536;-69
2022/06/16 05:19:51;;;;;;;7.10;4.53;;;;;;;;;;5135912;27;20448;-69
2022/06/16 05:22:19;;;;;;;8.53;4.37;;;;;;;;;;5135998;27;20523;-69
2022/06/16 05:24:47;;;;;;;8.70;4.90;;;;;;;;;;5136016;27;20530;-69
2022/06/16 05:27:15;;;;;;;6.03;4.80;;;;;;;;;;5136579;27;20514;-69
2022/06/16 05:29:42;;;;;;;7.10;4.57;;;;;;;;;;5135815;27;20443;-69
2022/06/16 05:32:10;;;;;;;5.60;4.50;;;;;;;;;;5135925;27;20487;-69
2022/06/16 05:34:38;;;;;;;7.80;4.80;;;;;;;;;;5136122;27;20440;-68
2022/06/16 05:37:05;;;;;;;8.17;5.43;;;;;;;;;;5135719;27;20893;-69
2022/06/16 05:39:34;;;;;;;6.33;4.73;;;;;;;;;;5135407;27;20521;-69
2022/06/16 05:42:01;;;;;;;5.87;5.17;;;;;;;;;;5135811;27;20444;-69
2022/06/16 05:44:28;;;;;;;5.87;4.87;;;;;;;;;;5135601;27;20526;-69
2022/06/16 05:46:55;;;;;;;5.83;5.33;;;;;;;;;;5135371;27;20473;-69
2022/06/16 05:49:23;;;;;;;6.67;4.77;;;;;;;;;;5135748;27;20566;-69
2022/06/16 05:51:50;;;;;;;5.70;4.63;;;;;;;;;;5135920;27;20465;-69
2022/06/16 05:54:17;;;;;;;6.87;4.83;;;;;;;;;;5135707;27;20535;-69
2022/06/16 05:56:46;;;;;;;6.40;5.50;;;;;;;;;;5135267;27;20447;-68
2022/06/16 05:59:14;;;;;;;5.43;4.93;;;;;;;;;;5135419;27;20449;-69
2022/06/16 06:01:41;;;;;;;6.87;5.27;;;;;;;;;;5135440;27;20483;-68
2022/06/16 06:04:08;;;;;;;11.40;6.20;;;;;;;;;;5135163;27;20978;-69
2022/06/16 06:06:35;;;;;;;7.17;5.83;;;;;;;;;;5135549;27;20471;-69
2022/06/16 06:17:20;;;;;;;11.20;6.00;;;;;;;;;;5135162;27;20844;-69
2022/06/16 06:19:47;;;;;;;11.53;6.00;;;;;;;;;;5134977;27;20442;-69
2022/06/16 06:22:16;;;;;;;5.60;5.10;;;;;;;;;;5135288;27;20440;-69
2022/06/16 06:24:44;;;;;;;7.67;5.87;;;;;;;;;;5135070;27;20442;-69
2022/06/16 06:27:15;;;;;;;7.67;5.43;;;;;;;;;;5135098;27;20547;-69
2022/06/16 06:29:43;;;;;;;6.10;5.03;;;;;;;;;;5134847;27;20433;-69
2022/06/16 06:32:11;;;;;;;5.83;5.33;;;;;;;;;;5134813;27;20529;-69
2022/06/16 06:34:38;;;;;;;12.47;6.03;;;;;;;;;;5134666;27;20434;-69
2022/06/16 06:37:06;;;;;;;8.00;5.07;;;;;;;;;;5134740;27;20475;-68
2022/06/16 06:39:33;;;;;;;6.83;5.80;;;;;;;;;;5134880;27;20434;-69
2022/06/16 06:42:03;;;;;;;5.47;4.97;;;;;;;;;;5134770;27;20799;-69
2022/06/16 06:44:31;;;;;;;5.17;4.67;;;;;;;;;;5134964;27;20505;-69
2022/06/16 06:46:59;;;;;;;5.73;5.00;;;;;;;;;;5134411;27;20471;-69
2022/06/16 06:49:27;;;;;;;8.70;4.70;;;;;;;;;;5134868;27;20467;-69
2022/06/16 06:51:54;;;;;;;6.67;4.57;;;;;;;;;;5134764;27;20530;-68
2022/06/16 06:54:21;;;;;;;5.70;4.13;;;;;;;;;;5134394;27;20497;-69
2022/06/16 06:56:49;;;;;;;6.67;3.40;;;;;;;;;;5134578;27;20525;-69
2022/06/16 06:59:19;;;;;;;11.57;4.40;;;;;;;;;;5134655;27;20437;-69
2022/06/16 07:01:48;;;;;;;4.60;3.43;;;;;;;;;;5134188;27;20525;-69
2022/06/16 07:04:15;;;;;;;4.70;3.47;;;;;;;;;;5134588;27;20440;-68
2022/06/16 07:06:43;;;;;;;7.70;3.50;;;;;;;;;;5134738;28;20469;-69
2022/06/16 07:09:11;;;;;;;4.80;3.37;;;;;;;;;;5134233;28;20448;-69
2022/06/16 07:11:40;;;;;;;4.60;3.20;;;;;;;;;;5134763;28;20446;-70
2022/06/16 07:14:07;;;;;;;2.63;2.43;;;;;;;;;;5134077;28;20479;-70
2022/06/16 07:16:34;;;;;;;3.93;3.17;;;;;;;;;;5134338;28;20443;-69
2022/06/16 07:19:03;;;;;;;3.63;2.27;;;;;;;;;;5134792;28;20557;-69
2022/06/16 07:21:30;;;;;;;3.83;3.03;;;;;;;;;;5133941;28;20456;-69
2022/06/16 07:23:57;;;;;;;3.37;2.00;;;;;;;;;;5134045;28;20796;-69
2022/06/16 07:26:25;;;;;;;2.70;2.50;;;;;;;;;;5134198;28;20917;-69
2022/06/16 07:28:52;;;;;;;3.27;2.70;;;;;;;;;;5134387;28;20467;-69
2022/06/16 07:31:20;;;;;;;3.50;1.93;;;;;;;;;;5134191;28;20438;-68
2022/06/16 07:33:47;;;;;;;4.70;2.63;;;;;;;;;;5134902;28;20507;-69
2022/06/16 07:36:16;;;;;;;2.37;2.17;;;;;;;;;;5133309;28;20525;-68
2022/06/16 07:38:43;;;;;;;2.30;1.90;;;;;;;;;;5133949;28;20525;-68
2022/06/16 07:43:55;;;;;;;2.70;2.10;;;;;;;;;;5133779;28;20485;-68
2022/06/16 07:46:23;;;;;;;3.00;1.77;;;;;;;;;;5136441;27;20474;-68
2022/06/16 07:48:51;;;;;;;3.60;2.10;;;;;;;;;;5138359;27;20442;-68
2022/06/16 07:51:19;;;;;;;2.57;2.17;;;;;;;;;;5138239;27;20548;-68
2022/06/16 07:53:47;;;;;;;2.83;2.30;;;;;;;;;;5138176;27;20516;-69
2022/06/16 07:56:15;;;;;;;2.93;2.00;;;;;;;;;;5137862;27;21014;-68
2022/06/16 07:58:43;;;;;;;3.60;1.87;;;;;;;;;;5137784;27;20444;-68
2022/06/16 08:01:11;;;;;;;3.40;2.40;;;;;;;;;;5137568;27;20439;-68
2022/06/16 08:03:38;;;;;;;3.30;2.30;;;;;;;;;;5137397;27;20469;-68
2022/06/16 08:06:08;;;;;;;1.93;1.83;;;;;;;;;;5137487;27;20561;-69
2022/06/16 08:08:36;;;;;;;2.63;1.60;;;;;;;;;;5137617;27;20438;-69
2022/06/16 08:11:04;;;;;;;2.60;1.80;;;;;;;;;;5137306;27;20450;-69
2022/06/16 08:13:31;;;;;;;2.67;1.87;;;;;;;;;;5137364;27;20444;-69
2022/06/16 08:15:58;;;;;;;2.40;1.60;;;;;;;;;;5136991;27;20535;-68
2022/06/16 08:18:26;;;;;;;1.57;1.47;;;;;;;;;;5137025;27;20611;-69
2022/06/16 08:20:54;;;;;;;2.60;1.67;;;;;;;;;;5137585;27;20526;-69
2022/06/16 08:23:21;;;;;;;2.10;1.90;;;;;;;;;;5137340;27;20537;-69
2022/06/16 08:25:50;;;;;;;1.83;1.73;;;;;;;;;;5137430;27;20442;-69
2022/06/16 08:28:19;;;;;;;1.73;1.63;;;;;;;;;;5136599;27;20443;-68
2022/06/16 08:30:47;;;;;;;1.70;1.60;;;;;;;;;;5137346;27;20798;-69
2022/06/16 08:33:15;;;;;;;2.23;1.60;;;;;;;;;;5137145;27;20957;-69
2022/06/16 08:35:43;;;;;;;1.70;1.60;;;;;;;;;;5136758;27;20529;-68
2022/06/16 08:38:10;;;;;;;4.60;1.80;;;;;;;;;;5136964;27;20516;-69
2022/06/16 08:40:42;;;;;;;2.70;1.97;;;;;;;;;;5137538;27;20442;-68
2022/06/16 08:43:14;;;;;;;2.20;1.57;;;;;;;;;;5137161;27;20904;-70
2022/06/16 08:45:43;;;;;;;2.00;1.80;;;;;;;;;;5136641;27;20515;-68
2022/06/16 08:48:18;;;;;;;2.30;1.40;;;;;;;;;;5136267;27;20450;-68
2022/06/16 08:50:48;;;;;;;4.97;1.93;;;;;;;;;;5137338;27;20528;-68
2022/06/16 08:53:37;;;;;;;7.63;1.63;;;;;;;;;;5136497;27;20439;-68
2022/06/16 08:56:06;;;;;;;5.60;2.03;;;;;;;;;;5136853;27;20521;-75
2022/06/16 08:58:38;;;;;;;2.30;1.77;;;;;;;;;;5136329;27;20449;-72
2022/06/16 09:01:10;;;;;;;11.63;3.30;;;;;;;;;;5136383;27;20462;-71
2022/06/16 09:03:40;;;;;;;5.83;1.90;;;;;;;;;;5136349;27;20467;-70
2022/06/16 09:06:14;;;;;;;2.77;1.53;;;;;;;;;;5136686;27;20470;-70
2022/06/16 09:08:46;;;;;;;2.17;1.27;;;;;;;;;;5137230;27;20933;-70
2022/06/16 09:11:17;;;;;;;1.97;1.77;;;;;;;;;;5137091;27;20427;-70
2022/06/16 09:13:58;;;;;;;3.00;1.60;;;;;;;;;;5136256;27;20523;-70
2022/06/16 09:16:30;;;;;;;1.60;1.50;;;;;;;;;;5136760;27;20471;-70
2022/06/16 09:19:14;;;;;;;4.93;2.03;;;;;;;;;;5136821;27;20540;-71
2022/06/16 09:21:50;;;;;;;3.67;1.70;;;;;;;;;;5136776;27;20496;-73
2022/06/16 09:24:27;;;;;;;2.30;1.70;;;;;;;;;;5136412;27;20465;-73
2022/06/16 09:26:58;;;;;;;3.37;1.63;;;;;;;;;;5136479;27;20465;-71
2022/06/16 09:29:28;;;;;;;3.87;1.77;;;;;;;;;;5136167;27;20518;-69
2022/06/16 09:31:59;;;;;;;1.90;1.60;;;;;;;;;;5134849;27;20449;-69
2022/06/16 09:34:29;;;;;;;3.30;1.50;;;;;;;;;;5135618;27;20897;-69
2022/06/16 09:37:00;;;;;;;2.70;1.97;;;;;;;;;;5136316;27;20431;-69
2022/06/16 09:39:30;;;;;;;6.97;2.40;;;;;;;;;;5135917;27;20773;-69
2022/06/16 09:44:49;;;;;;;5.63;1.73;;;;;;;;;;5135519;27;20394;-69
2022/06/16 09:47:18;;;;;;;2.47;2.27;;;;;;;;;;5135546;27;20974;-69
2022/06/16 09:49:48;;;;;;;3.63;2.37;;;;;;;;;;5135588;27;20481;-69
2022/06/16 09:52:17;;;;;;;4.70;3.43;;;;;;;;;;5135309;27;20533;-69
2022/06/16 09:54:47;;;;;;;18.23;15.70;;;;;;;;;;5135178;27;20526;-69
2022/06/16 09:57:16;;;;;;;8.93;2.33;;;;;;;;;;5135280;27;20433;-69
2022/06/16 09:59:46;;;;;;;4.17;2.37;;;;;;;;;;5135164;27;20518;-69
2022/06/16 10:02:16;;;;;;;2.77;1.80;;;;;;;;;;5134747;27;20951;-69
2022/06/16 10:04:43;;;;;;;5.43;2.37;;;;;;;;;;5135194;27;20431;-69
2022/06/16 10:07:15;;;;;;;2.90;1.80;;;;;;;;;;5134972;27;20482;-69
2022/06/16 10:09:45;;;;;;;4.53;2.97;;;;;;;;;;5134584;27;20513;-69
2022/06/16 10:12:16;;;;;;;3.17;2.23;;;;;;;;;;5134564;27;20431;-69
2022/06/16 10:14:46;;;;;;;4.30;2.63;;;;;;;;;;5135300;27;20762;-69
2022/06/16 10:17:16;;;;;;;3.00;2.50;;;;;;;;;;5135120;27;20443;-69
2022/06/16 10:19:45;;;;;;;6.43;2.50;;;;;;;;;;5134985;27;20785;-69
2022/06/16 10:22:13;;;;;;;3.57;2.13;;;;;;;;;;5135049;27;20849;-69
2022/06/16 10:24:43;;;;;;;4.97;3.50;;;;;;;;;;5135109;27;20435;-69
2022/06/16 10:27:11;;;;;;;2.33;2.13;;;;;;;;;;5135091;27;21007;-69
2022/06/16 10:29:38;;;;;;;6.23;2.47;;;;;;;;;;5134958;27;20432;-69
2022/06/16 10:32:15;;;;;;;3.93;2.70;;;;;;;;;;5114378;27;20808;-69
2022/06/16 10:34:44;;;;;;;3.17;2.60;;;;;;;;;;5114607;28;20515;-69
2022/06/16 10:37:14;;;;;;;4.20;2.80;;;;;;;;;;5114101;28;20492;-69
2022/06/16 10:39:44;;;;;;;2.87;2.50;;;;;;;;;;5114333;28;20455;-69
2022/06/16 10:42:19;;;;;;;6.27;2.60;;;;;;;;;;5113716;28;20947;-69
2022/06/16 10:44:50;;;;;;;5.83;3.20;;;;;;;;;;5114059;28;20458;-69
2022/06/16 10:47:20;;;;;;;3.43;3.10;;;;;;;;;;5114455;28;20482;-70
2022/06/16 10:49:49;;;;;;;3.20;2.90;;;;;;;;;;5113271;28;20994;-69
2022/06/16 10:52:23;;;;;;;4.70;2.73;;;;;;;;;;5113255;28;20526;-69
2022/06/16 10:54:57;;;;;;;4.90;3.10;;;;;;;;;;5113596;28;20458;-69
2022/06/16 10:57:25;;;;;;;2.80;2.40;;;;;;;;;;5113155;28;20459;-69
2022/06/16 10:59:53;;;;;;;4.13;2.87;;;;;;;;;;5113307;28;20429;-69
2022/06/16 11:02:25;;;;;;;2.90;2.53;;;;;;;;;;5113480;28;20606;-69
2022/06/16 11:04:58;;;;;;;6.07;2.80;;;;;;;;;;5113825;28;20429;-69
2022/06/16 11:07:29;;;;;;;6.17;3.10;;;;;;;;;;5113452;28;20514;-69
2022/06/16 11:10:02;;;;;;;7.77;3.00;;;;;;;;;;5113880;28;20835;-69
2022/06/16 11:12:30;;;;;;;4.60;2.73;;;;;;;;;;5113735;28;20433;-69
2022/06/16 11:15:01;;;;;;;4.77;2.77;;;;;;;;;;5114073;28;20439;-69
2022/06/16 11:17:29;;;;;;;8.37;3.07;;;;;;;;;;5113915;28;20548;-70
2022/06/16 11:20:02;;;;;;;4.33;2.80;;;;;;;;;;5114114;28;20477;-70
2022/06/16 11:22:30;;;;;;;6.47;4.70;;;;;;;;;;5117504;28;20434;-69
2022/06/16 11:25:00;;;;;;;6.10;2.70;;;;;;;;;;5117449;28;20919;-69
2022/06/16 11:27:29;;;;;;;4.63;2.83;;;;;;;;;;5117456;28;20474;-70
2022/06/16 11:29:56;;;;;;;8.23;2.97;;;;;;;;;;5117703;28;20437;-70
2022/06/16 11:32:28;;;;;;;3.90;2.70;;;;;;;;;;5118287;28;20871;-69
2022/06/16 11:34:55;;;;;;;3.03;2.53;;;;;;;;;;5117881;28;20426;-70
2022/06/16 11:37:38;;;;;;;2.90;2.43;;;;;;;;;;5117689;28;20524;-70
2022/06/16 11:40:12;;;;;;;4.00;3.60;;;;;;;;;;5117281;28;20426;-69
2022/06/16 11:42:48;;;;;;;5.30;2.93;;;;;;;;;;5117474;28;20435;-70
2022/06/16 11:45:19;;;;;;;4.33;3.30;;;;;;;;;;5117798;28;20422;-69
2022/06/16 11:47:49;;;;;;;4.43;2.93;;;;;;;;;;5117698;28;20497;-69
2022/06/16 11:50:24;;;;;;;3.73;2.83;;;;;;;;;;5117456;28;20832;-70
2022/06/16 11:52:55;;;;;;;3.70;2.70;;;;;;;;;;5117648;28;20774;-70
2022/06/16 11:55:28;;;;;;;6.73;4.03;;;;;;;;;;5117166;28;20513;-70
2022/06/16 11:57:59;;;;;;;7.07;2.90;;;;;;;;;;5117128;28;20518;-69
2022/06/16 12:00:28;;;;;;;4.63;3.83;;;;;;;;;;5117354;28;20454;-69
2022/06/16 12:03:24;;;;;;;6.47;5.20;;;;;;;;;;5117816;28;20478;-70
2022/06/16 12:05:59;;;;;;;2.67;2.47;;;;;;;;;;5117421;28;20470;-70
2022/06/16 12:08:37;;;;;;;3.40;2.67;;;;;;;;;;5117499;28;20550;-70
2022/06/16 12:11:07;;;;;;;6.83;2.97;;;;;;;;;;5117294;28;20430;-69
2022/06/16 12:13:37;;;;;;;6.80;3.27;;;;;;;;;;5117612;28;20434;-70
2022/06/16 12:16:09;;;;;;;4.90;3.90;;;;;;;;;;5132803;27;20434;-70
2022/06/16 12:18:42;;;;;;;3.40;2.70;;;;;;;;;;5137473;27;20471;-69
2022/06/16 12:21:13;;;;;;;3.17;2.70;;;;;;;;;;5137144;27;20434;-70
2022/06/16 12:23:46;;;;;;;2.97;2.73;;;;;;;;;;5137193;27;20454;-70
2022/06/16 12:26:19;;;;;;;2.73;2.53;;;;;;;;;;5137394;27;20431;-69
2022/06/16 12:28:50;;;;;;;4.37;3.13;;;;;;;;;;5137275;27;20497;-70
2022/06/16 12:31:21;;;;;;;7.93;3.17;;;;;;;;;;5136319;27;20458;-70
2022/06/16 12:33:51;;;;;;;8.10;6.43;;;;;;;;;;5136417;27;20485;-70
2022/06/16 12:36:20;;;;;;;7.77;3.43;;;;;;;;;;5136503;27;20441;-70
2022/06/16 12:38:50;;;;;;;3.63;2.77;;;;;;;;;;5137407;27;20474;-70
2022/06/16 12:41:20;;;;;;;4.43;3.13;;;;;;;;;;5136530;27;20491;-70
2022/06/16 12:43:50;;;;;;;6.53;2.63;;;;;;;;;;5137269;27;20427;-70
2022/06/16 12:46:20;;;;;;;3.33;2.70;;;;;;;;;;5116784;27;20467;-70
2022/06/16 12:48:51;;;;;;;4.60;2.93;;;;;;;;;;5117297;28;20565;-68
2022/06/16 12:51:21;;;;;;;2.47;2.27;;;;;;;;;;5116821;28;20893;-69
2022/06/16 12:53:54;;;;;;;3.50;2.67;;;;;;;;;;5116521;28;20431;-70
2022/06/16 12:56:24;;;;;;;4.10;3.30;;;;;;;;;;5115006;28;20991;-69
2022/06/16 12:58:53;;;;;;;11.07;3.53;;;;;;;;;;5115903;28;20463;-69
2022/06/16 13:01:21;;;;;;;5.47;3.20;;;;;;;;;;5115823;28;20992;-69
2022/06/16 13:03:51;;;;;;;2.70;2.43;;;;;;;;;;5115932;28;20442;-70
2022/06/16 13:06:21;;;;;;;2.90;2.33;;;;;;;;;;5115874;28;20440;-69
2022/06/16 13:08:51;;;;;;;2.97;2.43;;;;;;;;;;5115393;28;20527;-69
2022/06/16 13:11:22;;;;;;;3.90;2.63;;;;;;;;;;5115838;28;21024;-69
2022/06/16 13:13:53;;;;;;;2.70;2.50;;;;;;;;;;5116036;28;20510;-67
2022/06/16 13:16:23;;;;;;;3.03;2.73;;;;;;;;;;5114496;28;20435;-67
2022/06/16 13:18:53;;;;;;;6.13;3.73;;;;;;;;;;5115982;28;20995;-67
2022/06/16 13:21:23;;;;;;;3.70;3.40;;;;;;;;;;5115375;28;20449;-69
2022/06/16 13:23:55;;;;;;;6.50;2.90;;;;;;;;;;5115561;28;20424;-69
2022/06/16 13:26:26;;;;;;;3.97;3.53;;;;;;;;;;5115117;28;20918;-68
2022/06/16 13:29:01;;;;;;;8.43;3.70;;;;;;;;;;5114914;28;20505;-68
2022/06/16 13:31:30;;;;;;;4.47;3.13;;;;;;;;;;5115076;28;20425;-69
2022/06/16 13:34:14;;;;;;;3.83;2.53;;;;;;;;;;5115412;28;20994;-69
2022/06/16 13:36:48;;;;;;;9.20;3.73;;;;;;;;;;5114663;28;20446;-69
2022/06/16 13:39:30;;;;;;;8.73;3.23;;;;;;;;;;5115384;28;20462;-69
2022/06/16 13:42:13;;;;;;;3.80;2.80;;;;;;;;;;5114150;28;20528;-70
2022/06/16 13:45:00;;;;;;;2.80;2.60;;;;;;;;;;5114846;28;20516;-70
2022/06/16 13:47:29;;;;;;;2.90;2.70;;;;;;;;;;5115162;28;20482;-70
2022/06/16 13:50:04;;;;;;;2.60;2.40;;;;;;;;;;5115051;28;20479;-70
2022/06/16 13:52:33;;;;;;;3.77;2.70;;;;;;;;;;5114829;28;20443;-69
2022/06/16 13:55:27;;;;;;;3.33;2.87;;;;;;;;;;5114635;28;20444;-68
2022/06/16 13:58:27;;;;;;;3.17;2.37;;;;;;;;;;5066766;28;20550;-69
2022/06/16 14:01:12;;;;;;;3.40;2.60;;;;;;;;;;5032079;28;20856;-69
2022/06/16 14:03:53;;;;;;;7.77;3.40;;;;;;;;;;5031922;28;20485;-70
2022/06/16 14:06:23;;;;;;;4.83;4.00;;;;;;;;;;5086632;28;20438;-68
2022/06/16 14:08:51;;;;;;;14.00;7.43;;;;;;;;;;5114549;28;20497;-69
2022/06/16 14:11:22;;;;;;;6.83;3.83;;;;;;;;;;5114706;28;20515;-70
2022/06/16 14:14:07;;;;;;;4.53;3.03;;;;;;;;;;5114167;28;20467;-69
2022/06/16 14:16:35;;;;;;;5.30;3.30;;;;;;;;;;5113550;28;20465;-69
2022/06/16 14:19:27;;;;;;;8.80;4.97;;;;;;;;;;5113938;28;20537;-69
2022/06/16 14:21:59;;;;;;;6.10;4.53;;;;;;;;;;5094378;28;20550;-69
2022/06/16 14:24:30;;;;;;;3.70;2.87;;;;;;;;;;5114177;28;20571;-69
2022/06/16 14:26:59;;;;;;;7.23;3.53;;;;;;;;;;5114226;28;20469;-69
2022/06/16 14:29:28;;;;;;;2.90;2.70;;;;;;;;;;5114253;28;20523;-69
2022/06/16 14:31:58;;;;;;;4.33;3.90;;;;;;;;;;5113872;28;20471;-69
2022/06/16 14:34:30;;;;;;;3.70;3.20;;;;;;;;;;5114464;28;20869;-69
2022/06/16 14:37:02;;;;;;;7.53;6.70;;;;;;;;;;5113806;28;20464;-69
2022/06/16 14:39:32;;;;;;;8.03;6.97;;;;;;;;;;5114305;28;20495;-69
2022/06/16 14:42:01;;;;;;;17.43;7.90;;;;;;;;;;5114345;28;20461;-69
2022/06/16 14:44:31;;;;;;;3.27;2.53;;;;;;;;;;5113787;28;20419;-69
2022/06/16 14:47:05;;;;;;;5.93;2.43;;;;;;;;;;5114075;28;20444;-70
2022/06/16 14:49:34;;;;;;;5.07;3.10;;;;;;;;;;5113723;28;20496;-69
2022/06/16 14:52:03;;;;;;;14.67;3.40;;;;;;;;;;5113978;28;20486;-69
2022/06/16 14:54:32;;;;;;;7.83;4.70;;;;;;;;;;5112749;28;20433;-68
2022/06/16 14:57:00;;;;;;;2.70;2.50;;;;;;;;;;5113016;28;20477;-69
2022/06/16 14:59:34;;;;;;;10.60;3.00;;;;;;;;;;5113373;28;20439;-69
2022/06/16 15:02:02;;;;;;;3.20;2.90;;;;;;;;;;5113614;28;20429;-69
2022/06/16 15:04:31;;;;;;;7.53;6.83;;;;;;;;;;5112832;28;21025;-69
2022/06/16 15:06:59;;;;;;;3.60;2.67;;;;;;;;;;5113635;28;20571;-70
2022/06/16 15:09:30;;;;;;;9.83;4.67;;;;;;;;;;5112925;28;20451;-69
2022/06/16 15:12:00;;;;;;;2.93;2.70;;;;;;;;;;5113561;28;20410;-70
2022/06/16 15:14:28;;;;;;;5.00;4.53;;;;;;;;;;5112720;28;20522;-69
2022/06/16 15:19:42;;;;;;;3.20;2.87;;;;;;;;;;5113104;28;20489;-68
2022/06/16 15:22:09;;;;;;;4.27;3.50;;;;;;;;;;5113431;28;20441;-69